sensor_id;sensor_type;location;lat;lon;timestamp;P1;durP1;ratioP1;P2;durP2;ratioP2
787;SDS011;16074;42.708;23.312;2022-08-27T00:02:14;10.83;;;8.30;;
787;SDS011;16074;42.708;23.312;2022-08-27T00:04:43;14.20;;;6.87;;
787;SDS011;16074;42.708;23.312;2022-08-27T00:07:12;9.40;;;6.97;;
787;SDS011;16074;42.708;23.312;2022-08-27T00:09:40;7.80;;;7.00;;
787;SDS011;16074;42.708;23.312;2022-08-27T00:12:09;8.57;;;6.40;;
787;SDS011;16074;42.708;23.312;2022-08-27T00:14:37;5.80;;;5.30;;
787;SDS011;16074;42.708;23.312;2022-08-27T00:17:07;7.97;;;5.80;;
787;SDS011;16074;42.708;23.312;2022-08-27T00:19:36;13.17;;;6.43;;
787;SDS011;16074;42.708;23.312;2022-08-27T00:22:05;6.93;;;5.63;;
787;SDS011;16074;42.708;23.312;2022-08-27T00:24:35;7.67;;;6.87;;
787;SDS011;16074;42.708;23.312;2022-08-27T00:27:14;10.40;;;6.70;;
787;SDS011;16074;42.708;23.312;2022-08-27T00:29:43;8.13;;;5.90;;
787;SDS011;16074;42.708;23.312;2022-08-27T00:32:13;13.67;;;6.60;;
787;SDS011;16074;42.708;23.312;2022-08-27T00:34:41;10.70;;;6.43;;
787;SDS011;16074;42.708;23.312;2022-08-27T00:37:09;11.97;;;6.33;;
787;SDS011;16074;42.708;23.312;2022-08-27T00:39:37;7.87;;;7.07;;
787;SDS011;16074;42.708;23.312;2022-08-27T00:42:05;7.80;;;6.30;;
787;SDS011;16074;42.708;23.312;2022-08-27T00:44:34;8.13;;;6.23;;
787;SDS011;16074;42.708;23.312;2022-08-27T00:47:05;7.60;;;6.80;;
787;SDS011;16074;42.708;23.312;2022-08-27T00:49:39;8.33;;;6.10;;
787;SDS011;16074;42.708;23.312;2022-08-27T00:52:12;14.50;;;7.27;;
787;SDS011;16074;42.708;23.312;2022-08-27T00:54:44;10.67;;;7.50;;
787;SDS011;16074;42.708;23.312;2022-08-27T00:57:12;11.00;;;6.77;;
787;SDS011;16074;42.708;23.312;2022-08-27T00:59:42;11.00;;;7.40;;
787;SDS011;16074;42.708;23.312;2022-08-27T01:02:11;9.40;;;6.50;;
787;SDS011;16074;42.708;23.312;2022-08-27T01:04:47;7.93;;;7.13;;
787;SDS011;16074;42.708;23.312;2022-08-27T01:07:19;9.63;;;7.30;;
787;SDS011;16074;42.708;23.312;2022-08-27T01:09:48;7.13;;;6.50;;
787;SDS011;16074;42.708;23.312;2022-08-27T01:12:18;7.10;;;6.40;;
787;SDS011;16074;42.708;23.312;2022-08-27T01:14:47;7.30;;;6.37;;
787;SDS011;16074;42.708;23.312;2022-08-27T01:17:15;9.43;;;6.70;;
787;SDS011;16074;42.708;23.312;2022-08-27T01:19:45;10.90;;;7.70;;
787;SDS011;16074;42.708;23.312;2022-08-27T01:22:22;8.83;;;7.03;;
787;SDS011;16074;42.708;23.312;2022-08-27T01:24:59;9.33;;;7.50;;
787;SDS011;16074;42.708;23.312;2022-08-27T01:27:31;10.40;;;6.50;;
787;SDS011;16074;42.708;23.312;2022-08-27T01:29:59;9.77;;;6.00;;
787;SDS011;16074;42.708;23.312;2022-08-27T01:32:30;7.03;;;6.43;;
787;SDS011;16074;42.708;23.312;2022-08-27T01:35:01;8.37;;;7.57;;
787;SDS011;16074;42.708;23.312;2022-08-27T01:37:30;8.13;;;7.33;;
787;SDS011;16074;42.708;23.312;2022-08-27T01:40:00;8.93;;;7.53;;
787;SDS011;16074;42.708;23.312;2022-08-27T01:42:31;11.80;;;6.60;;
787;SDS011;16074;42.708;23.312;2022-08-27T01:45:02;7.37;;;6.60;;
787;SDS011;16074;42.708;23.312;2022-08-27T01:47:33;9.60;;;7.20;;
787;SDS011;16074;42.708;23.312;2022-08-27T01:50:07;10.37;;;6.60;;
787;SDS011;16074;42.708;23.312;2022-08-27T01:52:39;9.53;;;6.93;;
787;SDS011;16074;42.708;23.312;2022-08-27T01:55:09;9.43;;;7.33;;
787;SDS011;16074;42.708;23.312;2022-08-27T01:57:40;13.43;;;7.43;;
787;SDS011;16074;42.708;23.312;2022-08-27T02:00:10;10.63;;;6.90;;
787;SDS011;16074;42.708;23.312;2022-08-27T02:02:40;9.63;;;6.77;;
787;SDS011;16074;42.708;23.312;2022-08-27T02:05:10;9.30;;;6.70;;
787;SDS011;16074;42.708;23.312;2022-08-27T02:07:39;12.47;;;7.77;;
787;SDS011;16074;42.708;23.312;2022-08-27T02:10:10;10.97;;;8.00;;
787;SDS011;16074;42.708;23.312;2022-08-27T02:12:40;7.67;;;6.97;;
787;SDS011;16074;42.708;23.312;2022-08-27T02:15:09;7.03;;;6.20;;
787;SDS011;16074;42.708;23.312;2022-08-27T02:17:37;10.60;;;6.70;;
787;SDS011;16074;42.708;23.312;2022-08-27T02:20:06;12.50;;;7.07;;
787;SDS011;16074;42.708;23.312;2022-08-27T02:22:36;9.97;;;6.10;;
787;SDS011;16074;42.708;23.312;2022-08-27T02:25:05;14.33;;;6.80;;
787;SDS011;16074;42.708;23.312;2022-08-27T02:27:37;10.63;;;7.20;;
787;SDS011;16074;42.708;23.312;2022-08-27T02:30:07;7.17;;;6.47;;
787;SDS011;16074;42.708;23.312;2022-08-27T02:32:37;10.40;;;7.30;;
787;SDS011;16074;42.708;23.312;2022-08-27T02:35:06;8.90;;;7.70;;
787;SDS011;16074;42.708;23.312;2022-08-27T02:37:35;13.73;;;7.10;;
787;SDS011;16074;42.708;23.312;2022-08-27T02:40:04;8.73;;;7.83;;
787;SDS011;16074;42.708;23.312;2022-08-27T02:42:33;8.30;;;7.27;;
787;SDS011;16074;42.708;23.312;2022-08-27T02:45:04;8.37;;;7.57;;
787;SDS011;16074;42.708;23.312;2022-08-27T02:47:33;8.40;;;7.40;;
787;SDS011;16074;42.708;23.312;2022-08-27T02:50:02;8.27;;;7.37;;
787;SDS011;16074;42.708;23.312;2022-08-27T02:52:31;8.40;;;6.50;;
787;SDS011;16074;42.708;23.312;2022-08-27T02:54:59;7.40;;;6.53;;
787;SDS011;16074;42.708;23.312;2022-08-27T02:57:27;7.97;;;6.77;;
787;SDS011;16074;42.708;23.312;2022-08-27T03:00:04;8.40;;;7.60;;
787;SDS011;16074;42.708;23.312;2022-08-27T03:02:34;9.67;;;7.23;;
787;SDS011;16074;42.708;23.312;2022-08-27T03:05:03;8.53;;;7.30;;
787;SDS011;16074;42.708;23.312;2022-08-27T03:07:32;8.70;;;7.70;;
787;SDS011;16074;42.708;23.312;2022-08-27T03:10:00;11.70;;;7.10;;
787;SDS011;16074;42.708;23.312;2022-08-27T03:12:29;8.87;;;7.47;;
787;SDS011;16074;42.708;23.312;2022-08-27T03:14:58;13.37;;;7.60;;
787;SDS011;16074;42.708;23.312;2022-08-27T03:17:28;8.43;;;6.80;;
787;SDS011;16074;42.708;23.312;2022-08-27T03:20:14;8.67;;;7.33;;
787;SDS011;16074;42.708;23.312;2022-08-27T03:22:42;8.00;;;7.20;;
787;SDS011;16074;42.708;23.312;2022-08-27T03:25:11;7.60;;;6.17;;
787;SDS011;16074;42.708;23.312;2022-08-27T03:27:39;9.43;;;7.07;;
787;SDS011;16074;42.708;23.312;2022-08-27T03:30:15;7.73;;;6.90;;
787;SDS011;16074;42.708;23.312;2022-08-27T03:32:47;7.10;;;6.50;;
787;SDS011;16074;42.708;23.312;2022-08-27T03:35:16;7.63;;;7.00;;
787;SDS011;16074;42.708;23.312;2022-08-27T03:37:45;11.57;;;7.13;;
787;SDS011;16074;42.708;23.312;2022-08-27T03:40:13;10.83;;;7.07;;
787;SDS011;16074;42.708;23.312;2022-08-27T03:42:42;13.93;;;7.37;;
787;SDS011;16074;42.708;23.312;2022-08-27T03:45:10;7.60;;;6.83;;
787;SDS011;16074;42.708;23.312;2022-08-27T03:47:39;8.13;;;7.20;;
787;SDS011;16074;42.708;23.312;2022-08-27T03:50:09;7.40;;;6.80;;
787;SDS011;16074;42.708;23.312;2022-08-27T03:52:37;13.03;;;8.17;;
787;SDS011;16074;42.708;23.312;2022-08-27T03:55:06;9.47;;;6.73;;
787;SDS011;16074;42.708;23.312;2022-08-27T03:57:37;8.00;;;6.53;;
787;SDS011;16074;42.708;23.312;2022-08-27T04:00:06;9.40;;;7.67;;
787;SDS011;16074;42.708;23.312;2022-08-27T04:02:39;16.10;;;7.77;;
787;SDS011;16074;42.708;23.312;2022-08-27T04:05:11;8.90;;;8.00;;
787;SDS011;16074;42.708;23.312;2022-08-27T04:07:41;10.37;;;7.03;;
787;SDS011;16074;42.708;23.312;2022-08-27T04:10:10;9.30;;;8.40;;
787;SDS011;16074;42.708;23.312;2022-08-27T04:12:39;11.93;;;8.00;;
787;SDS011;16074;42.708;23.312;2022-08-27T04:15:08;8.87;;;7.30;;
787;SDS011;16074;42.708;23.312;2022-08-27T04:17:38;9.70;;;7.40;;
787;SDS011;16074;42.708;23.312;2022-08-27T04:20:07;8.47;;;6.80;;
787;SDS011;16074;42.708;23.312;2022-08-27T04:22:58;10.97;;;7.03;;
787;SDS011;16074;42.708;23.312;2022-08-27T04:25:26;10.00;;;7.50;;
787;SDS011;16074;42.708;23.312;2022-08-27T04:27:54;8.43;;;7.67;;
787;SDS011;16074;42.708;23.312;2022-08-27T04:30:23;11.20;;;8.13;;
787;SDS011;16074;42.708;23.312;2022-08-27T04:32:51;10.87;;;7.40;;
787;SDS011;16074;42.708;23.312;2022-08-27T04:35:19;11.20;;;9.43;;
787;SDS011;16074;42.708;23.312;2022-08-27T04:37:47;8.30;;;7.50;;
787;SDS011;16074;42.708;23.312;2022-08-27T04:40:17;10.40;;;7.87;;
787;SDS011;16074;42.708;23.312;2022-08-27T04:42:45;11.07;;;8.00;;
787;SDS011;16074;42.708;23.312;2022-08-27T04:45:14;9.23;;;8.20;;
787;SDS011;16074;42.708;23.312;2022-08-27T04:47:42;8.70;;;7.80;;
787;SDS011;16074;42.708;23.312;2022-08-27T04:50:11;13.97;;;9.07;;
787;SDS011;16074;42.708;23.312;2022-08-27T04:52:40;8.93;;;8.13;;
787;SDS011;16074;42.708;23.312;2022-08-27T04:55:08;14.47;;;9.23;;
787;SDS011;16074;42.708;23.312;2022-08-27T04:57:38;9.07;;;8.30;;
787;SDS011;16074;42.708;23.312;2022-08-27T05:00:06;12.20;;;9.63;;
787;SDS011;16074;42.708;23.312;2022-08-27T05:02:36;11.93;;;9.67;;
787;SDS011;16074;42.708;23.312;2022-08-27T05:05:04;13.83;;;10.33;;
787;SDS011;16074;42.708;23.312;2022-08-27T05:07:33;17.97;;;10.60;;
787;SDS011;16074;42.708;23.312;2022-08-27T05:10:01;13.87;;;9.60;;
787;SDS011;16074;42.708;23.312;2022-08-27T05:12:30;12.37;;;9.77;;
787;SDS011;16074;42.708;23.312;2022-08-27T05:14:59;10.70;;;8.80;;
787;SDS011;16074;42.708;23.312;2022-08-27T05:17:27;12.13;;;9.43;;
787;SDS011;16074;42.708;23.312;2022-08-27T05:19:56;9.57;;;8.67;;
787;SDS011;16074;42.708;23.312;2022-08-27T05:22:25;10.47;;;8.60;;
787;SDS011;16074;42.708;23.312;2022-08-27T05:24:53;9.27;;;8.37;;
787;SDS011;16074;42.708;23.312;2022-08-27T05:27:21;9.70;;;8.70;;
787;SDS011;16074;42.708;23.312;2022-08-27T05:29:50;11.87;;;8.80;;
787;SDS011;16074;42.708;23.312;2022-08-27T05:32:20;9.93;;;8.90;;
787;SDS011;16074;42.708;23.312;2022-08-27T05:34:48;13.13;;;9.97;;
787;SDS011;16074;42.708;23.312;2022-08-27T05:37:16;10.03;;;8.07;;
787;SDS011;16074;42.708;23.312;2022-08-27T05:39:44;9.40;;;7.90;;
787;SDS011;16074;42.708;23.312;2022-08-27T05:42:12;11.60;;;8.77;;
787;SDS011;16074;42.708;23.312;2022-08-27T05:44:40;9.87;;;7.27;;
787;SDS011;16074;42.708;23.312;2022-08-27T05:47:09;15.40;;;8.70;;
787;SDS011;16074;42.708;23.312;2022-08-27T05:49:38;10.80;;;8.70;;
787;SDS011;16074;42.708;23.312;2022-08-27T05:52:07;15.73;;;8.60;;
787;SDS011;16074;42.708;23.312;2022-08-27T05:54:37;8.90;;;7.17;;
787;SDS011;16074;42.708;23.312;2022-08-27T05:57:06;8.13;;;7.40;;
787;SDS011;16074;42.708;23.312;2022-08-27T05:59:34;10.00;;;7.50;;
787;SDS011;16074;42.708;23.312;2022-08-27T06:02:40;11.37;;;7.20;;
787;SDS011;16074;42.708;23.312;2022-08-27T06:05:11;11.17;;;8.17;;
787;SDS011;16074;42.708;23.312;2022-08-27T06:07:39;8.20;;;7.40;;
787;SDS011;16074;42.708;23.312;2022-08-27T06:10:07;8.53;;;7.70;;
787;SDS011;16074;42.708;23.312;2022-08-27T06:12:36;11.23;;;8.00;;
787;SDS011;16074;42.708;23.312;2022-08-27T06:15:05;15.80;;;8.40;;
787;SDS011;16074;42.708;23.312;2022-08-27T06:17:33;11.20;;;9.60;;
787;SDS011;16074;42.708;23.312;2022-08-27T06:20:02;10.43;;;9.40;;
787;SDS011;16074;42.708;23.312;2022-08-27T06:22:32;10.27;;;9.30;;
787;SDS011;16074;42.708;23.312;2022-08-27T06:25:00;12.57;;;9.27;;
787;SDS011;16074;42.708;23.312;2022-08-27T06:27:28;10.10;;;9.20;;
787;SDS011;16074;42.708;23.312;2022-08-27T06:29:56;13.67;;;8.40;;
787;SDS011;16074;42.708;23.312;2022-08-27T06:32:24;9.50;;;7.63;;
787;SDS011;16074;42.708;23.312;2022-08-27T06:34:52;14.90;;;8.50;;
787;SDS011;16074;42.708;23.312;2022-08-27T06:37:20;14.90;;;8.60;;
787;SDS011;16074;42.708;23.312;2022-08-27T06:39:50;8.30;;;7.60;;
787;SDS011;16074;42.708;23.312;2022-08-27T06:42:18;11.47;;;8.13;;
787;SDS011;16074;42.708;23.312;2022-08-27T06:44:51;10.40;;;9.40;;
787;SDS011;16074;42.708;23.312;2022-08-27T06:47:20;10.33;;;8.97;;
787;SDS011;16074;42.708;23.312;2022-08-27T06:49:48;9.23;;;8.30;;
787;SDS011;16074;42.708;23.312;2022-08-27T06:52:16;10.07;;;9.07;;
787;SDS011;16074;42.708;23.312;2022-08-27T06:54:44;12.53;;;9.00;;
787;SDS011;16074;42.708;23.312;2022-08-27T06:57:14;13.10;;;8.80;;
787;SDS011;16074;42.708;23.312;2022-08-27T06:59:42;13.57;;;8.23;;
787;SDS011;16074;42.708;23.312;2022-08-27T07:02:11;12.40;;;9.47;;
787;SDS011;16074;42.708;23.312;2022-08-27T07:04:39;13.20;;;9.50;;
787;SDS011;16074;42.708;23.312;2022-08-27T07:07:09;15.30;;;9.77;;
787;SDS011;16074;42.708;23.312;2022-08-27T07:09:39;11.57;;;10.37;;
787;SDS011;16074;42.708;23.312;2022-08-27T07:12:07;10.20;;;8.77;;
787;SDS011;16074;42.708;23.312;2022-08-27T07:14:36;11.37;;;10.17;;
787;SDS011;16074;42.708;23.312;2022-08-27T07:17:06;12.00;;;9.80;;
787;SDS011;16074;42.708;23.312;2022-08-27T07:19:41;11.87;;;8.67;;
787;SDS011;16074;42.708;23.312;2022-08-27T07:22:09;20.37;;;9.73;;
787;SDS011;16074;42.708;23.312;2022-08-27T07:24:38;23.23;;;10.47;;
787;SDS011;16074;42.708;23.312;2022-08-27T07:27:06;14.83;;;9.37;;
787;SDS011;16074;42.708;23.312;2022-08-27T07:29:34;11.90;;;8.30;;
787;SDS011;16074;42.708;23.312;2022-08-27T07:32:04;11.53;;;8.47;;
787;SDS011;16074;42.708;23.312;2022-08-27T07:34:32;13.13;;;8.47;;
787;SDS011;16074;42.708;23.312;2022-08-27T07:37:01;13.33;;;8.90;;
787;SDS011;16074;42.708;23.312;2022-08-27T07:39:29;14.13;;;9.33;;
787;SDS011;16074;42.708;23.312;2022-08-27T07:41:57;14.30;;;8.93;;
787;SDS011;16074;42.708;23.312;2022-08-27T07:44:43;11.70;;;8.77;;
787;SDS011;16074;42.708;23.312;2022-08-27T07:47:12;13.27;;;7.80;;
787;SDS011;16074;42.708;23.312;2022-08-27T07:49:40;15.33;;;8.43;;
787;SDS011;16074;42.708;23.312;2022-08-27T07:52:08;8.40;;;7.60;;
787;SDS011;16074;42.708;23.312;2022-08-27T07:54:37;12.77;;;8.00;;
787;SDS011;16074;42.708;23.312;2022-08-27T07:57:06;11.07;;;8.07;;
787;SDS011;16074;42.708;23.312;2022-08-27T07:59:35;11.93;;;7.10;;
787;SDS011;16074;42.708;23.312;2022-08-27T08:02:03;9.80;;;8.60;;
787;SDS011;16074;42.708;23.312;2022-08-27T08:04:33;11.93;;;7.97;;
787;SDS011;16074;42.708;23.312;2022-08-27T08:07:01;10.53;;;8.97;;
787;SDS011;16074;42.708;23.312;2022-08-27T08:09:29;11.57;;;8.63;;
787;SDS011;16074;42.708;23.312;2022-08-27T08:11:57;14.97;;;7.90;;
787;SDS011;16074;42.708;23.312;2022-08-27T08:14:25;8.43;;;7.73;;
787;SDS011;16074;42.708;23.312;2022-08-27T08:16:57;8.30;;;7.50;;
787;SDS011;16074;42.708;23.312;2022-08-27T08:19:26;8.77;;;7.40;;
787;SDS011;16074;42.708;23.312;2022-08-27T08:21:59;10.27;;;8.00;;
787;SDS011;16074;42.708;23.312;2022-08-27T08:24:31;10.50;;;8.57;;
787;SDS011;16074;42.708;23.312;2022-08-27T08:27:00;11.87;;;7.87;;
787;SDS011;16074;42.708;23.312;2022-08-27T08:29:33;10.93;;;7.90;;
787;SDS011;16074;42.708;23.312;2022-08-27T08:32:02;11.20;;;8.00;;
787;SDS011;16074;42.708;23.312;2022-08-27T08:34:31;9.03;;;8.23;;
787;SDS011;16074;42.708;23.312;2022-08-27T08:37:02;14.87;;;6.73;;
787;SDS011;16074;42.708;23.312;2022-08-27T08:39:31;8.13;;;7.43;;
787;SDS011;16074;42.708;23.312;2022-08-27T08:42:01;10.47;;;7.87;;
787;SDS011;16074;42.708;23.312;2022-08-27T08:44:31;13.70;;;8.03;;
787;SDS011;16074;42.708;23.312;2022-08-27T08:47:04;9.80;;;5.97;;
787;SDS011;16074;42.708;23.312;2022-08-27T08:49:47;10.33;;;7.77;;
787;SDS011;16074;42.708;23.312;2022-08-27T08:52:23;9.10;;;7.93;;
787;SDS011;16074;42.708;23.312;2022-08-27T08:54:59;12.90;;;7.60;;
787;SDS011;16074;42.708;23.312;2022-08-27T08:57:34;8.60;;;7.70;;
787;SDS011;16074;42.708;23.312;2022-08-27T09:00:09;11.70;;;8.00;;
787;SDS011;16074;42.708;23.312;2022-08-27T09:02:39;8.27;;;7.47;;
787;SDS011;16074;42.708;23.312;2022-08-27T09:05:13;13.13;;;7.40;;
787;SDS011;16074;42.708;23.312;2022-08-27T09:07:43;14.60;;;7.60;;
787;SDS011;16074;42.708;23.312;2022-08-27T09:10:37;9.70;;;6.80;;
787;SDS011;16074;42.708;23.312;2022-08-27T09:13:14;11.20;;;7.67;;
787;SDS011;16074;42.708;23.312;2022-08-27T09:15:48;10.50;;;6.73;;
787;SDS011;16074;42.708;23.312;2022-08-27T09:18:20;9.23;;;6.60;;
787;SDS011;16074;42.708;23.312;2022-08-27T09:20:54;10.20;;;6.60;;
787;SDS011;16074;42.708;23.312;2022-08-27T09:23:38;9.73;;;6.90;;
787;SDS011;16074;42.708;23.312;2022-08-27T09:26:17;7.50;;;6.33;;
787;SDS011;16074;42.708;23.312;2022-08-27T09:28:47;14.77;;;7.47;;
787;SDS011;16074;42.708;23.312;2022-08-27T09:31:34;9.97;;;7.00;;
787;SDS011;16074;42.708;23.312;2022-08-27T09:34:06;12.03;;;6.70;;
787;SDS011;16074;42.708;23.312;2022-08-27T09:36:44;9.60;;;6.07;;
787;SDS011;16074;42.708;23.312;2022-08-27T09:39:17;10.43;;;6.03;;
787;SDS011;16074;42.708;23.312;2022-08-27T09:41:46;15.03;;;6.90;;
787;SDS011;16074;42.708;23.312;2022-08-27T09:44:17;8.43;;;6.40;;
787;SDS011;16074;42.708;23.312;2022-08-27T09:46:55;7.43;;;6.30;;
787;SDS011;16074;42.708;23.312;2022-08-27T09:49:25;10.90;;;6.80;;
787;SDS011;16074;42.708;23.312;2022-08-27T09:51:53;8.07;;;5.40;;
787;SDS011;16074;42.708;23.312;2022-08-27T09:54:25;9.40;;;6.00;;
787;SDS011;16074;42.708;23.312;2022-08-27T09:56:59;8.10;;;5.97;;
787;SDS011;16074;42.708;23.312;2022-08-27T09:59:29;12.10;;;6.50;;
787;SDS011;16074;42.708;23.312;2022-08-27T10:02:04;8.40;;;6.93;;
787;SDS011;16074;42.708;23.312;2022-08-27T10:04:40;11.87;;;6.53;;
787;SDS011;16074;42.708;23.312;2022-08-27T10:07:23;10.30;;;6.30;;
787;SDS011;16074;42.708;23.312;2022-08-27T10:10:03;10.60;;;6.30;;
787;SDS011;16074;42.708;23.312;2022-08-27T10:12:40;8.33;;;6.70;;
787;SDS011;16074;42.708;23.312;2022-08-27T10:15:17;7.90;;;7.10;;
787;SDS011;16074;42.708;23.312;2022-08-27T10:17:49;8.20;;;6.23;;
787;SDS011;16074;42.708;23.312;2022-08-27T10:20:28;7.90;;;5.80;;
787;SDS011;16074;42.708;23.312;2022-08-27T10:23:05;8.67;;;6.03;;
787;SDS011;16074;42.708;23.312;2022-08-27T10:25:45;17.43;;;6.37;;
787;SDS011;16074;42.708;23.312;2022-08-27T10:28:22;7.90;;;6.30;;
787;SDS011;16074;42.708;23.312;2022-08-27T10:31:03;6.20;;;5.27;;
787;SDS011;16074;42.708;23.312;2022-08-27T10:33:42;8.27;;;6.23;;
787;SDS011;16074;42.708;23.312;2022-08-27T10:36:24;7.87;;;5.20;;
787;SDS011;16074;42.708;23.312;2022-08-27T10:39:04;9.17;;;5.90;;
787;SDS011;16074;42.708;23.312;2022-08-27T10:41:40;13.03;;;5.70;;
787;SDS011;16074;42.708;23.312;2022-08-27T10:44:20;9.93;;;5.83;;
787;SDS011;16074;42.708;23.312;2022-08-27T10:47:11;14.47;;;6.43;;
787;SDS011;16074;42.708;23.312;2022-08-27T10:49:51;9.23;;;5.80;;
787;SDS011;16074;42.708;23.312;2022-08-27T10:52:26;9.63;;;7.30;;
787;SDS011;16074;42.708;23.312;2022-08-27T10:54:57;9.57;;;7.60;;
787;SDS011;16074;42.708;23.312;2022-08-27T10:57:39;9.20;;;7.30;;
787;SDS011;16074;42.708;23.312;2022-08-27T11:00:28;9.70;;;7.53;;
787;SDS011;16074;42.708;23.312;2022-08-27T11:03:00;17.43;;;7.33;;
787;SDS011;16074;42.708;23.312;2022-08-27T11:05:35;9.03;;;8.10;;
787;SDS011;16074;42.708;23.312;2022-08-27T11:08:10;10.27;;;6.87;;
787;SDS011;16074;42.708;23.312;2022-08-27T11:10:44;7.33;;;6.73;;
787;SDS011;16074;42.708;23.312;2022-08-27T11:13:18;9.43;;;6.97;;
787;SDS011;16074;42.708;23.312;2022-08-27T11:15:57;11.73;;;6.33;;
787;SDS011;16074;42.708;23.312;2022-08-27T11:18:33;9.87;;;7.33;;
787;SDS011;16074;42.708;23.312;2022-08-27T11:21:09;12.93;;;7.17;;
787;SDS011;16074;42.708;23.312;2022-08-27T11:23:44;10.47;;;7.20;;
787;SDS011;16074;42.708;23.312;2022-08-27T11:26:16;18.07;;;7.60;;
787;SDS011;16074;42.708;23.312;2022-08-27T11:28:46;9.00;;;6.60;;
787;SDS011;16074;42.708;23.312;2022-08-27T11:31:18;8.93;;;7.07;;
787;SDS011;16074;42.708;23.312;2022-08-27T11:33:53;8.60;;;7.00;;
787;SDS011;16074;42.708;23.312;2022-08-27T11:36:46;6.90;;;6.30;;
787;SDS011;16074;42.708;23.312;2022-08-27T11:39:27;6.57;;;6.07;;
787;SDS011;16074;42.708;23.312;2022-08-27T11:42:24;10.50;;;5.80;;
787;SDS011;16074;42.708;23.312;2022-08-27T11:45:04;9.60;;;7.23;;
787;SDS011;16074;42.708;23.312;2022-08-27T11:47:36;7.27;;;6.37;;
787;SDS011;16074;42.708;23.312;2022-08-27T11:50:05;10.87;;;7.57;;
787;SDS011;16074;42.708;23.312;2022-08-27T11:52:52;6.67;;;6.07;;
787;SDS011;16074;42.708;23.312;2022-08-27T11:55:24;6.87;;;6.27;;
787;SDS011;16074;42.708;23.312;2022-08-27T11:58:05;9.60;;;6.40;;
787;SDS011;16074;42.708;23.312;2022-08-27T12:00:39;7.40;;;5.93;;
787;SDS011;16074;42.708;23.312;2022-08-27T12:03:09;6.63;;;6.07;;
787;SDS011;16074;42.708;23.312;2022-08-27T12:06:03;6.93;;;6.23;;
787;SDS011;16074;42.708;23.312;2022-08-27T12:08:36;6.20;;;4.63;;
787;SDS011;16074;42.708;23.312;2022-08-27T12:11:16;7.33;;;5.73;;
787;SDS011;16074;42.708;23.312;2022-08-27T12:13:55;8.27;;;6.73;;
787;SDS011;16074;42.708;23.312;2022-08-27T12:16:31;7.87;;;6.57;;
787;SDS011;16074;42.708;23.312;2022-08-27T12:19:16;7.50;;;6.20;;
787;SDS011;16074;42.708;23.312;2022-08-27T12:21:54;7.50;;;6.30;;
787;SDS011;16074;42.708;23.312;2022-08-27T12:24:37;6.60;;;5.80;;
787;SDS011;16074;42.708;23.312;2022-08-27T12:27:15;7.27;;;6.13;;
787;SDS011;16074;42.708;23.312;2022-08-27T12:29:52;12.00;;;6.90;;
787;SDS011;16074;42.708;23.312;2022-08-27T12:32:26;7.43;;;6.30;;
787;SDS011;16074;42.708;23.312;2022-08-27T12:35:06;11.47;;;6.43;;
787;SDS011;16074;42.708;23.312;2022-08-27T12:37:42;6.03;;;5.53;;
787;SDS011;16074;42.708;23.312;2022-08-27T12:40:17;10.07;;;6.90;;
787;SDS011;16074;42.708;23.312;2022-08-27T12:42:50;8.80;;;5.90;;
787;SDS011;16074;42.708;23.312;2022-08-27T12:45:30;8.63;;;7.07;;
787;SDS011;16074;42.708;23.312;2022-08-27T12:47:59;10.57;;;5.77;;
787;SDS011;16074;42.708;23.312;2022-08-27T12:50:28;9.97;;;6.70;;
787;SDS011;16074;42.708;23.312;2022-08-27T12:53:00;7.17;;;6.40;;
787;SDS011;16074;42.708;23.312;2022-08-27T12:55:38;12.93;;;5.77;;
787;SDS011;16074;42.708;23.312;2022-08-27T12:58:19;10.80;;;7.07;;
787;SDS011;16074;42.708;23.312;2022-08-27T13:01:02;6.60;;;6.00;;
787;SDS011;16074;42.708;23.312;2022-08-27T13:03:46;8.57;;;7.00;;
787;SDS011;16074;42.708;23.312;2022-08-27T13:06:19;6.80;;;6.20;;
787;SDS011;16074;42.708;23.312;2022-08-27T13:08:51;6.70;;;6.10;;
787;SDS011;16074;42.708;23.312;2022-08-27T13:11:21;9.73;;;7.60;;
787;SDS011;16074;42.708;23.312;2022-08-27T13:13:51;13.90;;;7.20;;
787;SDS011;16074;42.708;23.312;2022-08-27T13:16:30;7.57;;;6.97;;
787;SDS011;16074;42.708;23.312;2022-08-27T13:19:06;6.90;;;6.30;;
787;SDS011;16074;42.708;23.312;2022-08-27T13:21:34;12.87;;;6.80;;
787;SDS011;16074;42.708;23.312;2022-08-27T13:24:04;7.47;;;6.17;;
787;SDS011;16074;42.708;23.312;2022-08-27T13:26:33;6.90;;;6.30;;
787;SDS011;16074;42.708;23.312;2022-08-27T13:29:04;10.03;;;7.23;;
787;SDS011;16074;42.708;23.312;2022-08-27T13:31:33;12.50;;;6.53;;
787;SDS011;16074;42.708;23.312;2022-08-27T13:34:02;7.57;;;6.87;;
787;SDS011;16074;42.708;23.312;2022-08-27T13:36:35;14.13;;;6.40;;
787;SDS011;16074;42.708;23.312;2022-08-27T13:39:16;11.10;;;6.03;;
787;SDS011;16074;42.708;23.312;2022-08-27T13:41:45;15.63;;;6.10;;
787;SDS011;16074;42.708;23.312;2022-08-27T13:44:16;6.63;;;5.90;;
787;SDS011;16074;42.708;23.312;2022-08-27T13:46:48;8.37;;;6.73;;
787;SDS011;16074;42.708;23.312;2022-08-27T13:49:20;6.47;;;6.00;;
787;SDS011;16074;42.708;23.312;2022-08-27T13:51:57;6.97;;;6.47;;
787;SDS011;16074;42.708;23.312;2022-08-27T13:54:27;11.93;;;6.13;;
787;SDS011;16074;42.708;23.312;2022-08-27T13:57:01;7.00;;;6.30;;
787;SDS011;16074;42.708;23.312;2022-08-27T13:59:34;7.23;;;6.50;;
787;SDS011;16074;42.708;23.312;2022-08-27T14:02:18;6.87;;;6.17;;
787;SDS011;16074;42.708;23.312;2022-08-27T14:05:02;6.67;;;6.07;;
787;SDS011;16074;42.708;23.312;2022-08-27T14:07:36;10.80;;;6.70;;
787;SDS011;16074;42.708;23.312;2022-08-27T14:10:08;8.10;;;6.43;;
787;SDS011;16074;42.708;23.312;2022-08-27T14:12:56;8.43;;;6.20;;
787;SDS011;16074;42.708;23.312;2022-08-27T14:15:27;8.50;;;6.73;;
787;SDS011;16074;42.708;23.312;2022-08-27T14:17:59;6.70;;;6.00;;
787;SDS011;16074;42.708;23.312;2022-08-27T14:20:28;6.27;;;5.20;;
787;SDS011;16074;42.708;23.312;2022-08-27T14:22:58;9.53;;;6.80;;
787;SDS011;16074;42.708;23.312;2022-08-27T14:25:26;7.80;;;6.60;;
787;SDS011;16074;42.708;23.312;2022-08-27T14:27:54;9.43;;;6.73;;
787;SDS011;16074;42.708;23.312;2022-08-27T14:30:24;5.93;;;5.53;;
787;SDS011;16074;42.708;23.312;2022-08-27T14:32:56;7.77;;;6.10;;
787;SDS011;16074;42.708;23.312;2022-08-27T14:35:26;8.43;;;6.30;;
787;SDS011;16074;42.708;23.312;2022-08-27T14:37:55;7.73;;;6.40;;
787;SDS011;16074;42.708;23.312;2022-08-27T14:40:25;10.87;;;6.70;;
787;SDS011;16074;42.708;23.312;2022-08-27T14:42:54;8.03;;;6.00;;
787;SDS011;16074;42.708;23.312;2022-08-27T14:45:22;8.87;;;6.53;;
787;SDS011;16074;42.708;23.312;2022-08-27T14:47:51;11.27;;;7.03;;
787;SDS011;16074;42.708;23.312;2022-08-27T14:50:27;8.90;;;6.63;;
787;SDS011;16074;42.708;23.312;2022-08-27T14:52:55;6.37;;;5.70;;
787;SDS011;16074;42.708;23.312;2022-08-27T14:55:23;10.23;;;7.17;;
787;SDS011;16074;42.708;23.312;2022-08-27T14:57:53;8.07;;;7.27;;
787;SDS011;16074;42.708;23.312;2022-08-27T15:00:21;11.50;;;6.73;;
787;SDS011;16074;42.708;23.312;2022-08-27T15:02:50;11.43;;;7.00;;
787;SDS011;16074;42.708;23.312;2022-08-27T15:05:21;9.50;;;6.50;;
787;SDS011;16074;42.708;23.312;2022-08-27T15:07:50;9.87;;;6.30;;
787;SDS011;16074;42.708;23.312;2022-08-27T15:10:19;6.80;;;6.20;;
787;SDS011;16074;42.708;23.312;2022-08-27T15:12:47;7.17;;;6.67;;
787;SDS011;16074;42.708;23.312;2022-08-27T15:15:17;7.27;;;6.57;;
787;SDS011;16074;42.708;23.312;2022-08-27T15:17:45;8.00;;;6.50;;
787;SDS011;16074;42.708;23.312;2022-08-27T15:20:14;7.63;;;6.70;;
787;SDS011;16074;42.708;23.312;2022-08-27T15:22:46;6.20;;;5.70;;
787;SDS011;16074;42.708;23.312;2022-08-27T15:25:15;7.03;;;6.33;;